createdAt,value
2022-12-13T00:01:31.743Z,9.70
2022-12-13T00:04:00.658Z,9.30
2022-12-13T00:06:29.034Z,9.30
2022-12-13T00:08:57.270Z,9.13
2022-12-13T00:11:25.693Z,8.53
2022-12-13T00:13:53.838Z,8.80
2022-12-13T00:16:23.291Z,8.73
2022-12-13T00:18:53.976Z,8.07
2022-12-13T00:21:22.609Z,7.63
2022-12-13T00:23:50.971Z,7.93
2022-12-13T00:26:21.912Z,8.27
2022-12-13T00:28:51.226Z,8.17
2022-12-13T00:31:53.437Z,7.90
2022-12-13T00:34:09.258Z,9.37
2022-12-13T00:36:37.401Z,7.87
2022-12-13T00:39:05.589Z,8.07
2022-12-13T00:41:34.434Z,8.13
2022-12-13T00:44:03.412Z,8.67
2022-12-13T00:46:31.984Z,8.37
2022-12-13T00:49:01.147Z,8.37
2022-12-13T00:51:31.914Z,8.50
2022-12-13T00:54:03.537Z,9.20
2022-12-13T00:56:32.938Z,9.10
2022-12-13T00:59:01.344Z,8.23
2022-12-13T01:01:31.050Z,8.60
2022-12-13T01:04:00.268Z,8.07
2022-12-13T01:06:30.018Z,9.17
2022-12-13T01:08:59.594Z,8.83
2022-12-13T01:11:27.922Z,8.23
2022-12-13T01:13:56.065Z,7.87
2022-12-13T01:16:24.236Z,7.30
2022-12-13T01:18:52.776Z,8.03
2022-12-13T01:21:22.350Z,9.27
2022-12-13T01:23:50.846Z,8.27
2022-12-13T01:26:21.675Z,8.53
2022-12-13T01:28:50.444Z,8.00
2022-12-13T01:31:19.258Z,7.83
2022-12-13T01:33:47.585Z,7.97
2022-12-13T01:36:17.322Z,7.70
2022-12-13T01:38:45.523Z,7.30
2022-12-13T01:41:17.624Z,8.33
2022-12-13T01:43:54.359Z,7.77
2022-12-13T01:46:22.679Z,7.83
2022-12-13T01:48:53.253Z,7.90
2022-12-13T01:51:23.242Z,7.83
2022-12-13T01:53:52.033Z,7.80
2022-12-13T01:56:21.874Z,7.32
2022-12-13T01:58:51.250Z,8.23
2022-12-13T02:01:20.852Z,8.37
2022-12-13T02:03:49.043Z,7.70
2022-12-13T02:06:18.792Z,8.18
2022-12-13T02:08:47.761Z,8.07
2022-12-13T02:11:16.139Z,7.37
2022-12-13T02:13:44.321Z,7.40
2022-12-13T02:16:22.622Z,7.70
2022-12-13T02:19:00.606Z,8.27
2022-12-13T02:21:32.934Z,7.10
2022-12-13T02:24:19.879Z,7.82
2022-12-13T02:26:52.501Z,7.63
2022-12-13T02:29:39.485Z,7.45
2022-12-13T02:32:14.502Z,7.97
2022-12-13T02:34:45.143Z,7.93
2022-12-13T02:37:17.531Z,7.13
2022-12-13T02:39:48.981Z,7.63
2022-12-13T02:42:21.466Z,8.40
2022-12-13T02:44:53.106Z,7.40
2022-12-13T02:47:24.764Z,7.37
2022-12-13T02:49:53.792Z,8.10
2022-12-13T02:52:23.806Z,8.23
2022-12-13T02:54:51.965Z,7.38
2022-12-13T02:57:30.010Z,7.38
2022-12-13T02:59:59.249Z,7.28
2022-12-13T03:02:32.031Z,7.82
2022-12-13T03:05:33.158Z,8.48
2022-12-13T03:08:07.816Z,7.68
2022-12-13T03:10:39.991Z,7.17
2022-12-13T03:13:26.751Z,7.65
2022-12-13T03:15:58.459Z,7.32
2022-12-13T03:18:28.826Z,7.47
2022-12-13T03:20:58.607Z,7.07
2022-12-13T03:23:26.898Z,7.75
2022-12-13T03:25:57.181Z,7.37
2022-12-13T03:28:25.365Z,7.30
2022-12-13T03:30:53.614Z,7.18
2022-12-13T03:33:22.566Z,8.93
2022-12-13T03:35:52.115Z,8.23
2022-12-13T03:38:21.732Z,9.20
2022-12-13T03:40:51.694Z,9.40
2022-12-13T03:43:21.670Z,9.88
2022-12-13T03:45:50.919Z,9.02
2022-12-13T03:48:21.978Z,9.32
2022-12-13T03:50:53.344Z,8.13
2022-12-13T03:53:23.011Z,8.77
2022-12-13T03:56:02.182Z,9.40
2022-12-13T03:58:35.674Z,9.23
2022-12-13T04:01:05.631Z,9.27
2022-12-13T04:03:33.807Z,8.25
2022-12-13T04:06:03.302Z,9.80
2022-12-13T04:08:31.550Z,9.93
2022-12-13T04:10:59.805Z,10.27
2022-12-13T04:13:34.095Z,9.10
2022-12-13T04:16:02.898Z,9.33
2022-12-13T04:18:31.297Z,9.30
2022-12-13T04:20:59.464Z,9.93
2022-12-13T04:23:28.984Z,9.65
2022-12-13T04:25:57.199Z,9.40
2022-12-13T04:28:25.343Z,10.55
2022-12-13T04:30:54.262Z,10.20
2022-12-13T04:33:22.955Z,10.48
2022-12-13T04:35:51.636Z,11.48
2022-12-13T04:38:19.906Z,10.25
2022-12-13T04:40:49.402Z,11.50
2022-12-13T04:43:17.834Z,10.65
2022-12-13T04:45:46.062Z,11.13
2022-12-13T04:48:30.796Z,11.50
2022-12-13T04:51:01.061Z,11.20
2022-12-13T04:53:29.782Z,10.10
2022-12-13T04:55:59.335Z,10.07
2022-12-13T04:58:27.687Z,12.00
2022-12-13T05:00:55.925Z,10.85
2022-12-13T05:03:24.517Z,10.98
2022-12-13T05:05:52.679Z,10.68
2022-12-13T05:08:20.910Z,11.38
2022-12-13T05:10:49.098Z,10.98
2022-12-13T05:13:18.585Z,10.77
2022-12-13T05:15:52.103Z,11.45
2022-12-13T05:18:23.202Z,11.57
2022-12-13T05:20:51.956Z,12.20
2022-12-13T05:23:22.770Z,12.43
2022-12-13T05:25:51.517Z,11.30
2022-12-13T05:28:27.052Z,11.63
2022-12-13T05:30:56.018Z,11.23
2022-12-13T05:33:24.652Z,12.25
2022-12-13T05:35:57.690Z,11.82
2022-12-13T05:38:28.049Z,11.35
2022-12-13T05:40:56.281Z,10.98
2022-12-13T05:43:42.192Z,11.90
2022-12-13T05:46:11.686Z,11.80
2022-12-13T05:48:39.892Z,11.27
2022-12-13T05:51:10.994Z,12.18
2022-12-13T05:53:40.000Z,12.00
2022-12-13T05:56:08.496Z,12.52
2022-12-13T05:58:38.383Z,11.73
2022-12-13T06:01:07.879Z,12.65
2022-12-13T06:03:36.277Z,11.88
2022-12-13T06:06:04.642Z,11.05
2022-12-13T06:08:32.997Z,11.75
2022-12-13T06:11:11.657Z,11.80
2022-12-13T06:13:43.773Z,12.32
2022-12-13T06:16:13.215Z,11.77
2022-12-13T06:18:55.844Z,11.90
2022-12-13T06:21:27.742Z,11.63
2022-12-13T06:23:56.227Z,11.88
2022-12-13T06:26:24.375Z,11.70
2022-12-13T06:28:53.963Z,11.98
2022-12-13T06:31:22.167Z,12.15
2022-12-13T06:33:50.378Z,11.75
2022-12-13T06:36:18.534Z,13.30
2022-12-13T06:38:46.694Z,11.13
2022-12-13T06:41:15.580Z,11.90
2022-12-13T06:43:43.952Z,11.95
2022-12-13T06:46:13.616Z,11.63
2022-12-13T06:48:41.811Z,13.43
2022-12-13T06:51:10.837Z,13.00
2022-12-13T06:53:39.938Z,12.27
2022-12-13T06:56:09.257Z,12.93
2022-12-13T06:58:37.637Z,11.93
2022-12-13T07:01:07.044Z,12.75
2022-12-13T07:03:45.234Z,12.55
2022-12-13T07:06:14.574Z,12.85
2022-12-13T07:08:46.018Z,12.52
2022-12-13T07:11:15.683Z,12.35
2022-12-13T07:13:44.139Z,12.02
2022-12-13T07:16:12.318Z,13.30
2022-12-13T07:18:40.540Z,12.50
2022-12-13T07:21:10.578Z,12.63
2022-12-13T07:23:55.008Z,12.73
2022-12-13T07:26:23.684Z,13.70
2022-12-13T07:28:55.313Z,12.53
2022-12-13T07:31:24.573Z,11.90
2022-12-13T07:33:52.887Z,12.75
2022-12-13T07:36:24.507Z,13.27
2022-12-13T07:38:53.321Z,13.23
2022-12-13T07:41:23.202Z,13.48
2022-12-13T07:43:54.953Z,12.23
2022-12-13T07:46:32.365Z,12.20
2022-12-13T07:49:02.646Z,13.15
2022-12-13T07:51:35.073Z,13.27
2022-12-13T07:54:06.666Z,12.43
2022-12-13T07:56:35.679Z,12.80
2022-12-13T07:59:04.008Z,12.45
2022-12-13T08:01:34.556Z,12.60
2022-12-13T08:04:03.253Z,12.67
2022-12-13T08:06:36.376Z,13.57
2022-12-13T08:09:05.641Z,10.70
2022-12-13T08:11:33.812Z,11.87
2022-12-13T08:14:01.974Z,11.80
2022-12-13T08:16:30.596Z,12.93
2022-12-13T08:19:02.078Z,12.63
2022-12-13T08:21:55.121Z,12.30
2022-12-13T08:24:24.838Z,12.33
2022-12-13T08:26:53.014Z,12.23
2022-12-13T08:29:23.267Z,13.03
2022-12-13T08:32:02.320Z,12.50
2022-12-13T08:34:31.625Z,13.60
2022-12-13T08:37:03.550Z,13.03
2022-12-13T08:39:34.313Z,12.77
2022-12-13T08:42:16.484Z,12.30
2022-12-13T08:44:46.629Z,11.97
2022-12-13T08:47:24.120Z,11.90
2022-12-13T08:49:54.024Z,11.57
2022-12-13T08:52:24.141Z,11.83
2022-12-13T08:54:52.633Z,11.70
2022-12-13T08:57:20.829Z,13.13
2022-12-13T08:59:49.164Z,12.37
2022-12-13T09:02:17.755Z,12.10
2022-12-13T09:04:46.281Z,12.30
2022-12-13T09:07:14.754Z,12.37
2022-12-13T09:09:44.311Z,12.57
2022-12-13T09:12:30.099Z,12.90
2022-12-13T09:15:01.621Z,12.37
2022-12-13T09:17:36.943Z,10.90
2022-12-13T09:20:09.925Z,12.83
2022-12-13T09:23:01.812Z,12.13
2022-12-13T09:25:37.138Z,11.57
2022-12-13T09:28:06.680Z,12.17
2022-12-13T09:30:34.984Z,12.40
2022-12-13T09:33:18.285Z,12.67
2022-12-13T09:35:51.891Z,11.80
2022-12-13T09:38:20.209Z,11.63
2022-12-13T09:40:58.925Z,11.60
2022-12-13T09:43:31.666Z,10.63
2022-12-13T09:46:02.337Z,11.47
2022-12-13T09:48:34.648Z,10.40
2022-12-13T09:51:17.162Z,11.77
2022-12-13T09:53:53.045Z,11.20
2022-12-13T09:56:24.102Z,12.33
2022-12-13T09:58:53.337Z,10.23
2022-12-13T10:01:22.775Z,11.13
2022-12-13T10:03:52.675Z,11.13
2022-12-13T10:06:23.367Z,11.63
2022-12-13T10:08:57.726Z,11.93
2022-12-13T10:11:32.063Z,10.83
2022-12-13T10:14:03.713Z,11.83
2022-12-13T10:16:36.526Z,11.47
2022-12-13T10:19:29.124Z,11.60
2022-12-13T10:22:02.340Z,11.07
2022-12-13T10:24:36.846Z,10.77
2022-12-13T10:27:13.906Z,10.33
2022-12-13T10:29:56.965Z,11.00
2022-12-13T10:32:25.159Z,10.13
2022-12-13T10:34:55.223Z,10.00
2022-12-13T10:37:28.770Z,11.77
2022-12-13T10:39:57.047Z,10.90
2022-12-13T10:42:33.711Z,10.57
2022-12-13T10:45:11.306Z,10.83
2022-12-13T10:47:39.563Z,10.23
2022-12-13T10:50:08.108Z,11.47
2022-12-13T10:52:43.516Z,11.80
2022-12-13T10:55:24.196Z,10.80
2022-12-13T10:57:54.563Z,9.87
2022-12-13T11:00:32.150Z,10.80
2022-12-13T11:03:00.439Z,10.40
2022-12-13T11:05:29.576Z,10.30
2022-12-13T11:08:00.784Z,10.50
2022-12-13T11:10:30.294Z,10.73
2022-12-13T11:13:02.389Z,10.13
2022-12-13T11:15:31.971Z,10.67
2022-12-13T11:18:00.801Z,10.63
2022-12-13T11:20:31.974Z,9.43
2022-12-13T11:23:04.560Z,9.63
2022-12-13T11:25:35.295Z,10.70
2022-12-13T11:28:26.426Z,9.23
2022-12-13T11:31:01.471Z,8.60
2022-12-13T11:33:34.136Z,8.93
2022-12-13T11:36:23.095Z,7.53
2022-12-13T11:38:58.558Z,7.67
2022-12-13T11:41:32.544Z,8.00
2022-12-13T11:44:03.919Z,7.97
2022-12-13T11:46:38.577Z,6.80
2022-12-13T11:49:11.654Z,5.60
2022-12-13T11:51:42.314Z,5.33
2022-12-13T11:54:13.950Z,4.17
2022-12-13T11:57:00.171Z,3.87
2022-12-13T11:59:40.249Z,2.87
2022-12-13T12:02:17.118Z,3.00
2022-12-13T12:04:47.544Z,2.57
2022-12-13T12:07:33.671Z,2.40
2022-12-13T12:10:06.489Z,2.83
2022-12-13T12:12:35.406Z,2.80
2022-12-13T12:15:15.567Z,3.17
2022-12-13T12:17:45.470Z,7.70
2022-12-13T12:20:23.695Z,8.10
2022-12-13T12:22:56.489Z,8.00
2022-12-13T12:25:26.628Z,8.10
2022-12-13T12:27:59.609Z,8.13
2022-12-13T12:30:34.166Z,7.60
2022-12-13T12:33:07.694Z,7.57
2022-12-13T12:35:46.891Z,8.67
2022-12-13T12:38:25.377Z,9.13
2022-12-13T12:41:18.044Z,9.43
2022-12-13T12:43:47.026Z,8.10
2022-12-13T12:46:27.607Z,7.17
2022-12-13T12:49:10.122Z,7.87
2022-12-13T12:51:45.065Z,7.23
2022-12-13T12:54:20.881Z,7.57
2022-12-13T12:56:51.319Z,6.73
2022-12-13T12:59:23.994Z,7.77
2022-12-13T13:01:56.880Z,7.53
2022-12-13T13:04:28.530Z,6.93
2022-12-13T13:07:01.806Z,6.73
2022-12-13T13:09:30.993Z,7.07
2022-12-13T13:11:59.867Z,7.27
2022-12-13T13:14:29.919Z,9.30
2022-12-13T13:16:59.621Z,9.73
2022-12-13T13:19:43.743Z,10.53
2022-12-13T13:22:31.450Z,9.23
2022-12-13T13:25:02.650Z,10.87
2022-12-13T13:27:31.653Z,10.30
2022-12-13T13:30:06.952Z,11.03
2022-12-13T13:32:39.339Z,10.40
2022-12-13T13:35:31.484Z,10.90
2022-12-13T13:38:00.164Z,12.60
2022-12-13T13:40:31.617Z,11.43
2022-12-13T13:43:04.277Z,11.07
2022-12-13T13:45:32.444Z,12.50
2022-12-13T13:48:15.788Z,11.57
2022-12-13T13:50:57.401Z,11.70
2022-12-13T13:53:36.447Z,12.37
2022-12-13T13:56:13.003Z,11.50
2022-12-13T13:59:01.303Z,12.50
2022-12-13T14:01:40.352Z,13.33
2022-12-13T14:04:23.478Z,12.17
2022-12-13T14:07:05.763Z,13.07
2022-12-13T14:09:49.030Z,12.90
2022-12-13T14:12:46.451Z,12.57
2022-12-13T14:15:30.767Z,11.27
2022-12-13T14:18:21.410Z,12.93
2022-12-13T14:20:54.515Z,11.57
2022-12-13T14:23:29.644Z,12.13
2022-12-13T14:26:04.709Z,13.23
2022-12-13T14:28:38.793Z,12.73
2022-12-13T14:31:19.986Z,11.27
2022-12-13T14:33:51.166Z,12.87
2022-12-13T14:36:20.137Z,12.23
2022-12-13T14:38:49.674Z,11.53
2022-12-13T14:41:19.789Z,11.70
2022-12-13T14:43:50.206Z,11.23
2022-12-13T14:46:19.157Z,10.87
2022-12-13T14:48:48.667Z,11.60
2022-12-13T14:51:29.256Z,11.53
2022-12-13T14:53:58.743Z,11.30
2022-12-13T14:56:28.312Z,11.73
2022-12-13T14:58:58.222Z,11.20
2022-12-13T15:01:29.423Z,10.53
2022-12-13T15:04:13.109Z,10.63
2022-12-13T15:06:41.350Z,11.00
2022-12-13T15:09:18.708Z,11.27
2022-12-13T15:11:47.406Z,11.37
2022-12-13T15:14:16.710Z,10.97
2022-12-13T15:16:48.959Z,11.40
2022-12-13T15:19:30.099Z,11.03
2022-12-13T15:22:02.686Z,10.67
2022-12-13T15:24:34.067Z,11.03
2022-12-13T15:27:02.444Z,10.40
2022-12-13T15:29:31.989Z,9.97
2022-12-13T15:32:01.102Z,11.03
2022-12-13T15:34:35.650Z,11.10
2022-12-13T15:37:05.422Z,10.93
2022-12-13T15:39:39.339Z,10.83
2022-12-13T15:42:08.288Z,10.50
2022-12-13T15:44:42.104Z,10.73
2022-12-13T15:47:28.314Z,11.07
2022-12-13T15:49:58.298Z,10.43
2022-12-13T15:52:28.591Z,10.93
2022-12-13T15:55:02.806Z,10.40
2022-12-13T15:57:32.340Z,10.40
2022-12-13T16:00:04.883Z,10.90
2022-12-13T16:02:33.236Z,10.10
2022-12-13T16:05:06.835Z,10.87
2022-12-13T16:07:37.971Z,10.43
2022-12-13T16:10:08.445Z,11.63
2022-12-13T16:12:39.733Z,10.80
2022-12-13T16:15:20.488Z,10.80
2022-12-13T16:17:59.522Z,11.80
2022-12-13T16:20:28.109Z,10.30
2022-12-13T16:22:59.911Z,10.80
2022-12-13T16:25:30.115Z,10.30
2022-12-13T16:27:58.921Z,11.13
2022-12-13T16:30:28.231Z,11.03
2022-12-13T16:33:17.932Z,11.07
2022-12-13T16:35:44.538Z,10.93
2022-12-13T16:38:25.737Z,11.10
2022-12-13T16:40:57.513Z,11.83
2022-12-13T16:43:33.374Z,11.20
2022-12-13T16:47:14.732Z,10.80
2022-12-13T16:48:51.825Z,10.80
2022-12-13T16:51:20.002Z,11.37
2022-12-13T16:53:48.198Z,11.20
2022-12-13T16:56:21.746Z,12.40
2022-12-13T16:58:50.837Z,11.00
2022-12-13T17:01:20.593Z,11.07
2022-12-13T17:03:52.618Z,11.57
2022-12-13T17:06:23.250Z,10.60
2022-12-13T17:08:51.450Z,10.73
2022-12-13T17:11:20.950Z,11.00
2022-12-13T17:13:49.630Z,10.63
2022-12-13T17:16:17.827Z,10.97
2022-12-13T17:18:46.269Z,10.37
2022-12-13T17:21:14.434Z,10.80
2022-12-13T17:23:42.599Z,10.67
2022-12-13T17:26:12.194Z,10.30
2022-12-13T17:28:41.690Z,10.77
2022-12-13T17:31:11.968Z,10.27
2022-12-13T17:33:40.363Z,10.50
2022-12-13T17:36:09.490Z,10.13
2022-12-13T17:38:37.946Z,10.57
2022-12-13T17:41:06.173Z,8.63
2022-12-13T17:43:35.566Z,10.07
2022-12-13T17:46:06.509Z,10.20
2022-12-13T17:48:40.223Z,9.60
2022-12-13T17:51:09.266Z,9.60
2022-12-13T17:53:37.576Z,8.77
2022-12-13T17:56:07.538Z,9.27
2022-12-13T17:58:35.900Z,8.97
2022-12-13T18:01:12.483Z,9.77
2022-12-13T18:03:40.704Z,9.50
2022-12-13T18:06:09.203Z,8.73
2022-12-13T18:08:37.785Z,9.37
2022-12-13T18:13:55.393Z,9.20
2022-12-13T18:16:33.910Z,9.13
2022-12-13T18:19:05.787Z,9.47
2022-12-13T18:21:35.059Z,9.53
2022-12-13T18:24:03.258Z,8.60
2022-12-13T18:26:31.478Z,8.77
2022-12-13T18:28:59.629Z,9.47
2022-12-13T18:31:29.225Z,8.33
2022-12-13T18:33:57.688Z,9.73
2022-12-13T18:36:26.941Z,9.70
2022-12-13T18:38:55.250Z,8.97
2022-12-13T18:41:24.648Z,8.37
2022-12-13T18:43:56.547Z,10.07
2022-12-13T18:46:29.485Z,8.70
2022-12-13T18:48:57.836Z,9.07
2022-12-13T18:51:26.477Z,9.60
2022-12-13T18:53:55.862Z,8.93
2022-12-13T18:56:24.334Z,9.60
2022-12-13T18:58:53.319Z,9.23
2022-12-13T19:01:22.756Z,8.73
2022-12-13T19:03:52.505Z,8.30
2022-12-13T19:06:21.482Z,9.17
2022-12-13T19:08:49.940Z,9.17
2022-12-13T19:11:18.155Z,10.47
2022-12-13T19:13:46.500Z,9.30
2022-12-13T19:16:16.139Z,9.60
2022-12-13T19:18:44.288Z,9.23
2022-12-13T19:21:15.576Z,9.23
2022-12-13T19:23:43.767Z,9.80
2022-12-13T19:26:13.919Z,9.53
2022-12-13T19:28:42.656Z,10.70
2022-12-13T19:31:11.285Z,9.30
2022-12-13T19:33:39.563Z,8.70
2022-12-13T19:36:08.597Z,9.67
2022-12-13T19:38:38.349Z,9.47
2022-12-13T19:41:09.858Z,9.53
2022-12-13T19:43:38.010Z,8.50
2022-12-13T19:46:06.459Z,9.20
2022-12-13T19:48:37.409Z,9.57
2022-12-13T19:51:07.009Z,9.07
2022-12-13T19:53:35.681Z,9.50
2022-12-13T19:56:09.255Z,8.50
2022-12-13T19:58:37.470Z,8.10
2022-12-13T20:01:06.346Z,9.40
2022-12-13T20:03:35.002Z,9.17
2022-12-13T20:06:03.627Z,8.83
2022-12-13T20:08:31.889Z,8.77
2022-12-13T20:11:00.614Z,8.63
2022-12-13T20:13:30.527Z,8.93
2022-12-13T20:15:58.868Z,9.07
2022-12-13T20:18:27.349Z,9.53
2022-12-13T20:21:11.582Z,9.07
2022-12-13T20:23:40.967Z,10.03
2022-12-13T20:26:10.017Z,10.13
2022-12-13T20:28:39.771Z,9.83
2022-12-13T20:31:09.077Z,9.57
2022-12-13T20:33:38.213Z,9.93
2022-12-13T20:36:24.669Z,10.40
2022-12-13T20:38:53.672Z,10.33
2022-12-13T20:41:21.812Z,11.33
2022-12-13T20:43:54.062Z,10.90
2022-12-13T20:46:22.675Z,10.20
2022-12-13T20:48:51.274Z,10.60
2022-12-13T20:51:20.702Z,10.63
2022-12-13T20:53:49.749Z,10.63
2022-12-13T20:56:18.713Z,10.77
2022-12-13T20:58:46.989Z,9.50
2022-12-13T21:01:17.347Z,9.87
2022-12-13T21:03:45.667Z,9.70
2022-12-13T21:06:14.006Z,10.27
2022-12-13T21:08:55.145Z,9.50
2022-12-13T21:11:27.321Z,8.90
2022-12-13T21:13:56.606Z,9.63
2022-12-13T21:16:27.518Z,10.17
2022-12-13T21:18:56.130Z,9.30
2022-12-13T21:21:24.558Z,9.57
2022-12-13T21:23:52.737Z,9.67
2022-12-13T21:26:22.897Z,10.03
2022-12-13T21:28:53.488Z,10.40
2022-12-13T21:31:23.406Z,9.77
2022-12-13T21:33:54.579Z,9.30
2022-12-13T21:36:24.019Z,9.97
2022-12-13T21:38:54.713Z,8.90
2022-12-13T21:41:23.254Z,8.90
2022-12-13T21:43:51.846Z,9.10
2022-12-13T21:46:20.849Z,8.83
2022-12-13T21:48:49.902Z,8.20
2022-12-13T21:51:21.142Z,8.53
2022-12-13T21:53:49.847Z,8.77
2022-12-13T21:56:36.752Z,8.03
2022-12-13T21:59:17.319Z,8.87
2022-12-13T22:02:04.683Z,8.23
2022-12-13T22:04:32.903Z,9.50
2022-12-13T22:07:02.457Z,9.60
2022-12-13T22:09:30.591Z,8.37
2022-12-13T22:11:58.795Z,9.20
2022-12-13T22:14:27.104Z,8.40
2022-12-13T22:16:55.322Z,7.73
2022-12-13T22:19:23.485Z,9.03
2022-12-13T22:21:51.814Z,9.30
2022-12-13T22:24:21.324Z,9.30
2022-12-13T22:26:49.523Z,9.30
2022-12-13T22:29:17.749Z,9.63
2022-12-13T22:31:48.825Z,9.43
2022-12-13T22:34:18.054Z,9.13
2022-12-13T22:36:46.214Z,9.80
2022-12-13T22:39:17.394Z,8.87
2022-12-13T22:41:47.338Z,9.67
2022-12-13T22:44:16.059Z,8.50
2022-12-13T22:46:44.585Z,8.77
2022-12-13T22:49:12.987Z,9.00
2022-12-13T22:51:41.491Z,9.27
2022-12-13T22:54:10.006Z,9.67
2022-12-13T22:56:38.163Z,9.20
2022-12-13T22:59:08.215Z,8.23
2022-12-13T23:01:37.777Z,8.40
2022-12-13T23:04:06.463Z,9.13
2022-12-13T23:06:36.225Z,8.33
2022-12-13T23:09:05.830Z,8.40
2022-12-13T23:11:51.938Z,7.60
2022-12-13T23:14:26.747Z,8.03
2022-12-13T23:16:55.022Z,7.07
2022-12-13T23:22:11.369Z,8.50
2022-12-13T23:24:39.556Z,8.27
2022-12-13T23:27:07.728Z,8.60
2022-12-13T23:29:37.337Z,8.17
2022-12-13T23:32:05.656Z,8.50
2022-12-13T23:34:33.818Z,8.10
2022-12-13T23:37:01.994Z,7.90
2022-12-13T23:39:30.198Z,8.33
2022-12-13T23:41:58.371Z,8.60
2022-12-13T23:44:26.556Z,8.97
2022-12-13T23:46:58.709Z,9.27
2022-12-13T23:49:26.867Z,8.37
2022-12-13T23:51:55.095Z,9.43
2022-12-13T23:54:23.338Z,9.23
2022-12-13T23:56:51.480Z,8.67
2022-12-13T23:59:19.658Z,8.23
